sensor_id;sensor_type;location;lat;lon;timestamp;P1;durP1;ratioP1;P2;durP2;ratioP2
73515;SDS011;61763;51.416;5.442;2022-11-20T00:02:14;14.55;;;5.68;;
73515;SDS011;61763;51.416;5.442;2022-11-20T00:04:39;14.52;;;6.35;;
73515;SDS011;61763;51.416;5.442;2022-11-20T00:07:05;13.73;;;5.43;;
73515;SDS011;61763;51.416;5.442;2022-11-20T00:09:33;18.15;;;6.47;;
73515;SDS011;61763;51.416;5.442;2022-11-20T00:11:59;15.27;;;6.45;;
73515;SDS011;61763;51.416;5.442;2022-11-20T00:14:24;14.43;;;6.00;;
73515;SDS011;61763;51.416;5.442;2022-11-20T00:16:52;17.00;;;6.45;;
73515;SDS011;61763;51.416;5.442;2022-11-20T00:19:17;14.90;;;6.15;;
73515;SDS011;61763;51.416;5.442;2022-11-20T00:21:42;16.00;;;6.72;;
73515;SDS011;61763;51.416;5.442;2022-11-20T00:24:08;15.85;;;6.75;;
73515;SDS011;61763;51.416;5.442;2022-11-20T00:26:35;17.90;;;6.50;;
73515;SDS011;61763;51.416;5.442;2022-11-20T00:29:00;19.63;;;7.32;;
73515;SDS011;61763;51.416;5.442;2022-11-20T00:31:26;13.98;;;5.82;;
73515;SDS011;61763;51.416;5.442;2022-11-20T00:33:52;14.52;;;6.28;;
73515;SDS011;61763;51.416;5.442;2022-11-20T00:36:19;15.48;;;6.40;;
73515;SDS011;61763;51.416;5.442;2022-11-20T00:38:46;16.77;;;6.63;;
73515;SDS011;61763;51.416;5.442;2022-11-20T00:41:13;19.45;;;7.47;;
73515;SDS011;61763;51.416;5.442;2022-11-20T00:43:40;13.68;;;6.07;;
73515;SDS011;61763;51.416;5.442;2022-11-20T00:46:07;15.73;;;6.57;;
73515;SDS011;61763;51.416;5.442;2022-11-20T00:48:34;15.32;;;6.60;;
73515;SDS011;61763;51.416;5.442;2022-11-20T00:50:59;16.58;;;6.60;;
73515;SDS011;61763;51.416;5.442;2022-11-20T00:53:25;20.58;;;7.13;;
73515;SDS011;61763;51.416;5.442;2022-11-20T00:55:58;17.55;;;6.80;;
73515;SDS011;61763;51.416;5.442;2022-11-20T00:58:29;18.98;;;6.75;;
73515;SDS011;61763;51.416;5.442;2022-11-20T01:01:15;18.30;;;7.18;;
73515;SDS011;61763;51.416;5.442;2022-11-20T01:03:46;15.05;;;6.30;;
73515;SDS011;61763;51.416;5.442;2022-11-20T01:06:16;18.15;;;6.75;;
73515;SDS011;61763;51.416;5.442;2022-11-20T01:08:44;18.63;;;6.82;;
73515;SDS011;61763;51.416;5.442;2022-11-20T01:11:11;17.17;;;6.72;;
73515;SDS011;61763;51.416;5.442;2022-11-20T01:13:39;19.02;;;7.57;;
73515;SDS011;61763;51.416;5.442;2022-11-20T01:16:09;16.50;;;7.05;;
73515;SDS011;61763;51.416;5.442;2022-11-20T01:18:38;18.67;;;6.78;;
73515;SDS011;61763;51.416;5.442;2022-11-20T01:21:05;18.20;;;6.82;;
73515;SDS011;61763;51.416;5.442;2022-11-20T01:23:33;16.20;;;6.78;;
73515;SDS011;61763;51.416;5.442;2022-11-20T01:26:00;16.20;;;6.50;;
73515;SDS011;61763;51.416;5.442;2022-11-20T01:28:28;16.85;;;8.07;;
73515;SDS011;61763;51.416;5.442;2022-11-20T01:30:53;16.52;;;7.10;;
73515;SDS011;61763;51.416;5.442;2022-11-20T01:33:19;19.23;;;7.15;;
73515;SDS011;61763;51.416;5.442;2022-11-20T01:35:44;15.82;;;5.90;;
73515;SDS011;61763;51.416;5.442;2022-11-20T01:38:09;16.95;;;5.88;;
73515;SDS011;61763;51.416;5.442;2022-11-20T01:40:35;16.85;;;7.03;;
73515;SDS011;61763;51.416;5.442;2022-11-20T01:43:14;13.50;;;5.75;;
73515;SDS011;61763;51.416;5.442;2022-11-20T01:46:03;17.30;;;6.45;;
73515;SDS011;61763;51.416;5.442;2022-11-20T01:51:13;18.10;;;7.13;;
73515;SDS011;61763;51.416;5.442;2022-11-20T01:54:01;18.95;;;6.97;;
73515;SDS011;61763;51.416;5.442;2022-11-20T01:56:31;18.42;;;8.10;;
73515;SDS011;61763;51.416;5.442;2022-11-20T01:59:02;16.55;;;7.38;;
73515;SDS011;61763;51.416;5.442;2022-11-20T02:01:30;19.17;;;7.13;;
73515;SDS011;61763;51.416;5.442;2022-11-20T02:03:56;16.52;;;6.85;;
73515;SDS011;61763;51.416;5.442;2022-11-20T02:06:24;17.65;;;6.80;;
73515;SDS011;61763;51.416;5.442;2022-11-20T02:08:52;17.33;;;6.65;;
73515;SDS011;61763;51.416;5.442;2022-11-20T02:11:19;18.98;;;7.13;;
73515;SDS011;61763;51.416;5.442;2022-11-20T02:13:45;18.40;;;7.07;;
73515;SDS011;61763;51.416;5.442;2022-11-20T02:16:12;16.75;;;7.03;;
73515;SDS011;61763;51.416;5.442;2022-11-20T02:18:40;17.90;;;7.70;;
73515;SDS011;61763;51.416;5.442;2022-11-20T02:21:08;18.73;;;7.65;;
73515;SDS011;61763;51.416;5.442;2022-11-20T02:29:10;17.23;;;7.03;;
73515;SDS011;61763;51.416;5.442;2022-11-20T02:31:36;14.85;;;6.57;;
73515;SDS011;61763;51.416;5.442;2022-11-20T02:34:03;18.60;;;7.47;;
73515;SDS011;61763;51.416;5.442;2022-11-20T02:36:28;17.48;;;6.60;;
73515;SDS011;61763;51.416;5.442;2022-11-20T02:38:57;15.32;;;7.10;;
73515;SDS011;61763;51.416;5.442;2022-11-20T02:41:29;16.15;;;7.10;;
73515;SDS011;61763;51.416;5.442;2022-11-20T02:43:55;18.52;;;7.93;;
73515;SDS011;61763;51.416;5.442;2022-11-20T02:46:21;18.27;;;7.32;;
73515;SDS011;61763;51.416;5.442;2022-11-20T02:48:46;18.45;;;7.72;;
73515;SDS011;61763;51.416;5.442;2022-11-20T02:51:12;17.02;;;7.30;;
73515;SDS011;61763;51.416;5.442;2022-11-20T02:53:37;16.50;;;7.22;;
73515;SDS011;61763;51.416;5.442;2022-11-20T02:56:03;17.15;;;7.10;;
73515;SDS011;61763;51.416;5.442;2022-11-20T02:58:28;15.73;;;6.45;;
73515;SDS011;61763;51.416;5.442;2022-11-20T03:00:54;17.05;;;6.80;;
73515;SDS011;61763;51.416;5.442;2022-11-20T03:03:19;17.90;;;7.30;;
73515;SDS011;61763;51.416;5.442;2022-11-20T03:05:44;16.35;;;6.82;;
73515;SDS011;61763;51.416;5.442;2022-11-20T03:08:09;18.58;;;6.80;;
73515;SDS011;61763;51.416;5.442;2022-11-20T03:10:35;12.82;;;5.78;;
73515;SDS011;61763;51.416;5.442;2022-11-20T03:13:00;14.90;;;6.60;;
73515;SDS011;61763;51.416;5.442;2022-11-20T03:15:25;15.25;;;6.45;;
73515;SDS011;61763;51.416;5.442;2022-11-20T03:17:54;17.52;;;6.93;;
73515;SDS011;61763;51.416;5.442;2022-11-20T03:20:20;16.65;;;6.30;;
73515;SDS011;61763;51.416;5.442;2022-11-20T03:22:46;16.88;;;6.25;;
73515;SDS011;61763;51.416;5.442;2022-11-20T03:25:11;16.30;;;6.57;;
73515;SDS011;61763;51.416;5.442;2022-11-20T03:27:36;13.18;;;6.35;;
73515;SDS011;61763;51.416;5.442;2022-11-20T03:30:02;16.65;;;6.47;;
73515;SDS011;61763;51.416;5.442;2022-11-20T03:32:28;18.00;;;6.65;;
73515;SDS011;61763;51.416;5.442;2022-11-20T03:34:53;15.35;;;6.28;;
73515;SDS011;61763;51.416;5.442;2022-11-20T03:37:19;13.10;;;6.30;;
73515;SDS011;61763;51.416;5.442;2022-11-20T03:39:44;15.65;;;6.50;;
73515;SDS011;61763;51.416;5.442;2022-11-20T03:42:09;16.33;;;6.63;;
73515;SDS011;61763;51.416;5.442;2022-11-20T03:44:55;16.92;;;7.03;;
73515;SDS011;61763;51.416;5.442;2022-11-20T03:47:20;13.95;;;6.47;;
73515;SDS011;61763;51.416;5.442;2022-11-20T03:49:45;14.98;;;6.40;;
73515;SDS011;61763;51.416;5.442;2022-11-20T03:52:11;14.38;;;6.35;;
73515;SDS011;61763;51.416;5.442;2022-11-20T03:54:36;15.88;;;6.75;;
73515;SDS011;61763;51.416;5.442;2022-11-20T03:57:02;16.50;;;7.00;;
73515;SDS011;61763;51.416;5.442;2022-11-20T03:59:27;17.00;;;6.88;;
73515;SDS011;61763;51.416;5.442;2022-11-20T04:01:52;15.10;;;6.28;;
73515;SDS011;61763;51.416;5.442;2022-11-20T04:04:18;17.30;;;6.88;;
73515;SDS011;61763;51.416;5.442;2022-11-20T04:06:43;17.65;;;7.75;;
73515;SDS011;61763;51.416;5.442;2022-11-20T04:09:09;14.55;;;6.53;;
73515;SDS011;61763;51.416;5.442;2022-11-20T04:11:36;17.15;;;6.85;;
73515;SDS011;61763;51.416;5.442;2022-11-20T04:14:04;16.02;;;6.70;;
73515;SDS011;61763;51.416;5.442;2022-11-20T04:16:36;16.10;;;7.28;;
73515;SDS011;61763;51.416;5.442;2022-11-20T04:19:03;17.00;;;7.45;;
73515;SDS011;61763;51.416;5.442;2022-11-20T04:21:30;17.00;;;7.07;;
73515;SDS011;61763;51.416;5.442;2022-11-20T04:23:55;16.33;;;7.43;;
73515;SDS011;61763;51.416;5.442;2022-11-20T04:26:22;17.27;;;6.30;;
73515;SDS011;61763;51.416;5.442;2022-11-20T04:28:49;18.30;;;7.25;;
73515;SDS011;61763;51.416;5.442;2022-11-20T04:31:16;16.33;;;6.82;;
73515;SDS011;61763;51.416;5.442;2022-11-20T04:33:43;16.15;;;7.28;;
73515;SDS011;61763;51.416;5.442;2022-11-20T04:38:54;14.30;;;6.03;;
73515;SDS011;61763;51.416;5.442;2022-11-20T04:41:21;15.68;;;6.65;;
73515;SDS011;61763;51.416;5.442;2022-11-20T04:43:49;17.08;;;7.18;;
73515;SDS011;61763;51.416;5.442;2022-11-20T04:46:16;17.52;;;6.78;;
73515;SDS011;61763;51.416;5.442;2022-11-20T04:48:42;19.75;;;6.90;;
73515;SDS011;61763;51.416;5.442;2022-11-20T04:51:07;18.05;;;7.40;;
73515;SDS011;61763;51.416;5.442;2022-11-20T04:53:33;16.52;;;7.18;;
73515;SDS011;61763;51.416;5.442;2022-11-20T04:55:59;19.80;;;7.30;;
73515;SDS011;61763;51.416;5.442;2022-11-20T04:58:25;15.93;;;6.70;;
73515;SDS011;61763;51.416;5.442;2022-11-20T05:00:51;17.52;;;6.93;;
73515;SDS011;61763;51.416;5.442;2022-11-20T05:03:16;17.70;;;6.53;;
73515;SDS011;61763;51.416;5.442;2022-11-20T05:05:42;18.45;;;7.85;;
73515;SDS011;61763;51.416;5.442;2022-11-20T05:08:07;13.70;;;6.38;;
73515;SDS011;61763;51.416;5.442;2022-11-20T05:10:32;17.95;;;6.97;;
73515;SDS011;61763;51.416;5.442;2022-11-20T05:12:58;17.98;;;6.25;;
73515;SDS011;61763;51.416;5.442;2022-11-20T05:15:23;17.02;;;6.68;;
73515;SDS011;61763;51.416;5.442;2022-11-20T05:17:49;19.48;;;6.85;;
73515;SDS011;61763;51.416;5.442;2022-11-20T05:20:15;16.25;;;6.82;;
73515;SDS011;61763;51.416;5.442;2022-11-20T05:22:41;16.02;;;6.57;;
73515;SDS011;61763;51.416;5.442;2022-11-20T05:25:06;18.52;;;7.07;;
73515;SDS011;61763;51.416;5.442;2022-11-20T05:27:32;15.05;;;6.30;;
73515;SDS011;61763;51.416;5.442;2022-11-20T05:29:57;16.10;;;7.10;;
73515;SDS011;61763;51.416;5.442;2022-11-20T05:32:22;17.55;;;6.95;;
73515;SDS011;61763;51.416;5.442;2022-11-20T05:34:50;17.85;;;7.03;;
73515;SDS011;61763;51.416;5.442;2022-11-20T05:37:16;14.95;;;6.50;;
73515;SDS011;61763;51.416;5.442;2022-11-20T05:39:41;19.13;;;7.57;;
73515;SDS011;61763;51.416;5.442;2022-11-20T05:42:07;17.50;;;7.87;;
73515;SDS011;61763;51.416;5.442;2022-11-20T05:44:51;15.50;;;7.13;;
73515;SDS011;61763;51.416;5.442;2022-11-20T05:47:16;17.15;;;7.15;;
73515;SDS011;61763;51.416;5.442;2022-11-20T05:49:41;14.13;;;6.63;;
73515;SDS011;61763;51.416;5.442;2022-11-20T05:52:07;17.75;;;6.97;;
73515;SDS011;61763;51.416;5.442;2022-11-20T05:54:32;15.00;;;6.60;;
73515;SDS011;61763;51.416;5.442;2022-11-20T05:56:57;18.10;;;6.72;;
73515;SDS011;61763;51.416;5.442;2022-11-20T05:59:23;16.70;;;7.10;;
73515;SDS011;61763;51.416;5.442;2022-11-20T06:01:48;17.52;;;7.40;;
73515;SDS011;61763;51.416;5.442;2022-11-20T06:04:13;14.52;;;6.22;;
73515;SDS011;61763;51.416;5.442;2022-11-20T06:06:39;16.85;;;6.90;;
73515;SDS011;61763;51.416;5.442;2022-11-20T06:09:04;15.10;;;6.25;;
73515;SDS011;61763;51.416;5.442;2022-11-20T06:11:29;16.75;;;6.80;;
73515;SDS011;61763;51.416;5.442;2022-11-20T06:13:55;15.50;;;7.38;;
73515;SDS011;61763;51.416;5.442;2022-11-20T06:16:20;14.00;;;6.68;;
73515;SDS011;61763;51.416;5.442;2022-11-20T06:18:46;14.98;;;6.47;;
73515;SDS011;61763;51.416;5.442;2022-11-20T06:21:16;16.30;;;7.53;;
73515;SDS011;61763;51.416;5.442;2022-11-20T06:23:43;15.88;;;5.95;;
73515;SDS011;61763;51.416;5.442;2022-11-20T06:26:10;15.07;;;6.65;;
73515;SDS011;61763;51.416;5.442;2022-11-20T06:28:37;15.95;;;6.80;;
73515;SDS011;61763;51.416;5.442;2022-11-20T06:31:03;14.30;;;6.88;;
73515;SDS011;61763;51.416;5.442;2022-11-20T06:33:29;15.25;;;6.38;;
73515;SDS011;61763;51.416;5.442;2022-11-20T06:35:58;13.30;;;6.40;;
73515;SDS011;61763;51.416;5.442;2022-11-20T06:38:25;15.63;;;6.95;;
73515;SDS011;61763;51.416;5.442;2022-11-20T06:40:51;14.00;;;5.50;;
73515;SDS011;61763;51.416;5.442;2022-11-20T06:43:16;14.77;;;6.65;;
73515;SDS011;61763;51.416;5.442;2022-11-20T06:45:42;17.80;;;6.95;;
73515;SDS011;61763;51.416;5.442;2022-11-20T06:48:07;12.80;;;6.22;;
73515;SDS011;61763;51.416;5.442;2022-11-20T06:50:33;16.50;;;7.05;;
73515;SDS011;61763;51.416;5.442;2022-11-20T06:53:01;14.52;;;6.60;;
73515;SDS011;61763;51.416;5.442;2022-11-20T06:55:28;14.73;;;6.22;;
73515;SDS011;61763;51.416;5.442;2022-11-20T06:57:54;15.07;;;7.07;;
73515;SDS011;61763;51.416;5.442;2022-11-20T07:00:19;16.17;;;6.60;;
73515;SDS011;61763;51.416;5.442;2022-11-20T07:02:44;14.93;;;6.53;;
73515;SDS011;61763;51.416;5.442;2022-11-20T07:05:10;16.25;;;6.68;;
73515;SDS011;61763;51.416;5.442;2022-11-20T07:07:35;17.02;;;7.22;;
73515;SDS011;61763;51.416;5.442;2022-11-20T07:10:00;19.27;;;6.32;;
73515;SDS011;61763;51.416;5.442;2022-11-20T07:12:26;16.83;;;6.55;;
73515;SDS011;61763;51.416;5.442;2022-11-20T07:14:51;16.70;;;7.38;;
73515;SDS011;61763;51.416;5.442;2022-11-20T07:17:16;13.50;;;6.43;;
73515;SDS011;61763;51.416;5.442;2022-11-20T07:19:42;15.70;;;6.72;;
73515;SDS011;61763;51.416;5.442;2022-11-20T07:22:08;18.00;;;7.80;;
73515;SDS011;61763;51.416;5.442;2022-11-20T07:24:33;16.38;;;6.22;;
73515;SDS011;61763;51.416;5.442;2022-11-20T07:26:58;11.20;;;4.65;;
73515;SDS011;61763;51.416;5.442;2022-11-20T07:29:24;14.43;;;6.70;;
73515;SDS011;61763;51.416;5.442;2022-11-20T07:31:49;13.63;;;6.40;;
73515;SDS011;61763;51.416;5.442;2022-11-20T07:34:15;12.95;;;6.05;;
73515;SDS011;61763;51.416;5.442;2022-11-20T07:36:40;13.98;;;6.43;;
73515;SDS011;61763;51.416;5.442;2022-11-20T07:39:05;15.35;;;6.90;;
73515;SDS011;61763;51.416;5.442;2022-11-20T07:41:31;15.32;;;6.18;;
73515;SDS011;61763;51.416;5.442;2022-11-20T07:43:56;14.85;;;6.60;;
73515;SDS011;61763;51.416;5.442;2022-11-20T07:46:22;16.05;;;6.45;;
73515;SDS011;61763;51.416;5.442;2022-11-20T07:48:47;15.80;;;6.47;;
73515;SDS011;61763;51.416;5.442;2022-11-20T07:51:12;16.27;;;7.05;;
73515;SDS011;61763;51.416;5.442;2022-11-20T07:53:38;15.73;;;6.15;;
73515;SDS011;61763;51.416;5.442;2022-11-20T07:56:03;15.60;;;6.45;;
73515;SDS011;61763;51.416;5.442;2022-11-20T07:58:29;12.80;;;5.72;;
73515;SDS011;61763;51.416;5.442;2022-11-20T08:00:55;14.82;;;6.57;;
73515;SDS011;61763;51.416;5.442;2022-11-20T08:03:21;15.98;;;6.07;;
73515;SDS011;61763;51.416;5.442;2022-11-20T08:05:46;16.05;;;6.53;;
73515;SDS011;61763;51.416;5.442;2022-11-20T08:08:11;16.55;;;7.60;;
73515;SDS011;61763;51.416;5.442;2022-11-20T08:10:37;13.90;;;6.75;;
73515;SDS011;61763;51.416;5.442;2022-11-20T08:13:02;15.98;;;6.70;;
73515;SDS011;61763;51.416;5.442;2022-11-20T08:15:49;16.02;;;6.32;;
73515;SDS011;61763;51.416;5.442;2022-11-20T08:18:15;14.35;;;6.78;;
73515;SDS011;61763;51.416;5.442;2022-11-20T08:20:43;16.33;;;7.70;;
73515;SDS011;61763;51.416;5.442;2022-11-20T08:23:08;17.38;;;7.30;;
73515;SDS011;61763;51.416;5.442;2022-11-20T08:25:34;15.75;;;6.93;;
73515;SDS011;61763;51.416;5.442;2022-11-20T08:28:02;16.65;;;7.03;;
73515;SDS011;61763;51.416;5.442;2022-11-20T08:30:31;17.02;;;7.88;;
73515;SDS011;61763;51.416;5.442;2022-11-20T08:33:00;17.20;;;7.95;;
73515;SDS011;61763;51.416;5.442;2022-11-20T08:35:27;18.20;;;7.80;;
73515;SDS011;61763;51.416;5.442;2022-11-20T08:37:53;16.50;;;6.82;;
73515;SDS011;61763;51.416;5.442;2022-11-20T08:40:18;14.65;;;6.53;;
73515;SDS011;61763;51.416;5.442;2022-11-20T08:42:47;16.48;;;7.28;;
73515;SDS011;61763;51.416;5.442;2022-11-20T08:45:16;17.13;;;8.05;;
73515;SDS011;61763;51.416;5.442;2022-11-20T08:47:43;17.75;;;7.45;;
73515;SDS011;61763;51.416;5.442;2022-11-20T08:50:10;19.00;;;7.50;;
73515;SDS011;61763;51.416;5.442;2022-11-20T08:52:36;18.75;;;7.85;;
73515;SDS011;61763;51.416;5.442;2022-11-20T08:55:02;20.35;;;7.80;;
73515;SDS011;61763;51.416;5.442;2022-11-20T08:57:31;23.27;;;8.65;;
73515;SDS011;61763;51.416;5.442;2022-11-20T08:59:58;19.58;;;7.82;;
73515;SDS011;61763;51.416;5.442;2022-11-20T09:02:23;21.67;;;8.25;;
73515;SDS011;61763;51.416;5.442;2022-11-20T09:04:48;23.63;;;9.03;;
73515;SDS011;61763;51.416;5.442;2022-11-20T09:07:14;26.00;;;9.48;;
73515;SDS011;61763;51.416;5.442;2022-11-20T09:09:39;20.85;;;7.55;;
73515;SDS011;61763;51.416;5.442;2022-11-20T09:12:04;23.63;;;9.23;;
73515;SDS011;61763;51.416;5.442;2022-11-20T09:14:30;26.13;;;10.27;;
73515;SDS011;61763;51.416;5.442;2022-11-20T09:16:55;27.70;;;10.15;;
73515;SDS011;61763;51.416;5.442;2022-11-20T09:19:21;28.17;;;10.18;;
73515;SDS011;61763;51.416;5.442;2022-11-20T09:21:48;30.90;;;10.48;;
73515;SDS011;61763;51.416;5.442;2022-11-20T09:24:14;26.75;;;9.13;;
73515;SDS011;61763;51.416;5.442;2022-11-20T09:26:40;33.85;;;10.95;;
73515;SDS011;61763;51.416;5.442;2022-11-20T09:29:05;33.13;;;10.75;;
73515;SDS011;61763;51.416;5.442;2022-11-20T09:31:31;28.00;;;10.43;;
73515;SDS011;61763;51.416;5.442;2022-11-20T09:33:56;28.90;;;11.13;;
73515;SDS011;61763;51.416;5.442;2022-11-20T09:36:21;36.60;;;12.23;;
73515;SDS011;61763;51.416;5.442;2022-11-20T09:38:47;35.88;;;11.20;;
73515;SDS011;61763;51.416;5.442;2022-11-20T09:49:50;38.63;;;12.13;;
73515;SDS011;61763;51.416;5.442;2022-11-20T09:55:15;28.63;;;11.15;;
73515;SDS011;61763;51.416;5.442;2022-11-20T09:57:42;34.92;;;11.93;;
73515;SDS011;61763;51.416;5.442;2022-11-20T10:00:12;38.50;;;12.70;;
73515;SDS011;61763;51.416;5.442;2022-11-20T10:05:21;35.33;;;12.52;;
73515;SDS011;61763;51.416;5.442;2022-11-20T10:08:07;34.75;;;11.68;;
73515;SDS011;61763;51.416;5.442;2022-11-20T10:10:42;34.85;;;11.23;;
73515;SDS011;61763;51.416;5.442;2022-11-20T10:15:43;31.60;;;11.13;;
73515;SDS011;61763;51.416;5.442;2022-11-20T10:29:46;32.22;;;11.00;;
73515;SDS011;61763;51.416;5.442;2022-11-20T10:32:22;31.75;;;12.25;;
73515;SDS011;61763;51.416;5.442;2022-11-20T10:34:59;30.02;;;11.65;;
73515;SDS011;61763;51.416;5.442;2022-11-20T10:42:36;30.55;;;11.13;;
73515;SDS011;61763;51.416;5.442;2022-11-20T10:45:18;28.98;;;11.70;;
73515;SDS011;61763;51.416;5.442;2022-11-20T10:47:45;30.58;;;11.68;;
73515;SDS011;61763;51.416;5.442;2022-11-20T10:50:11;31.02;;;10.90;;
73515;SDS011;61763;51.416;5.442;2022-11-20T10:52:56;32.15;;;11.48;;
73515;SDS011;61763;51.416;5.442;2022-11-20T11:00:48;26.45;;;11.00;;
73515;SDS011;61763;51.416;5.442;2022-11-20T11:08:39;32.75;;;12.95;;
73515;SDS011;61763;51.416;5.442;2022-11-20T11:11:10;36.72;;;13.68;;
73515;SDS011;61763;51.416;5.442;2022-11-20T11:16:21;19.17;;;7.22;;
73515;SDS011;61763;51.416;5.442;2022-11-20T11:18:46;35.63;;;13.73;;
73515;SDS011;61763;51.416;5.442;2022-11-20T11:21:12;34.25;;;12.63;;
73515;SDS011;61763;51.416;5.442;2022-11-20T11:23:41;32.42;;;12.30;;
73515;SDS011;61763;51.416;5.442;2022-11-20T11:26:20;37.30;;;12.20;;
73515;SDS011;61763;51.416;5.442;2022-11-20T11:28:54;29.77;;;11.13;;
73515;SDS011;61763;51.416;5.442;2022-11-20T11:31:27;30.80;;;11.88;;
73515;SDS011;61763;51.416;5.442;2022-11-20T11:36:40;34.38;;;11.95;;
73515;SDS011;61763;51.416;5.442;2022-11-20T11:41:39;31.70;;;11.30;;
73515;SDS011;61763;51.416;5.442;2022-11-20T11:47:15;30.38;;;11.10;;
73515;SDS011;61763;51.416;5.442;2022-11-20T11:50:00;26.88;;;8.82;;
73515;SDS011;61763;51.416;5.442;2022-11-20T11:58:50;36.58;;;12.82;;
73515;SDS011;61763;51.416;5.442;2022-11-20T12:01:33;35.05;;;11.60;;
73515;SDS011;61763;51.416;5.442;2022-11-20T12:04:13;33.95;;;11.95;;
73515;SDS011;61763;51.416;5.442;2022-11-20T12:06:42;29.92;;;10.52;;
73515;SDS011;61763;51.416;5.442;2022-11-20T12:09:12;27.60;;;10.02;;
73515;SDS011;61763;51.416;5.442;2022-11-20T12:16:44;34.90;;;12.00;;
73515;SDS011;61763;51.416;5.442;2022-11-20T12:19:11;33.10;;;10.93;;
73515;SDS011;61763;51.416;5.442;2022-11-20T12:21:45;31.10;;;10.98;;
73515;SDS011;61763;51.416;5.442;2022-11-20T12:41:15;39.05;;;12.25;;
73515;SDS011;61763;51.416;5.442;2022-11-20T13:04:00;34.60;;;11.98;;
73515;SDS011;61763;51.416;5.442;2022-11-20T13:06:33;40.20;;;13.93;;
73515;SDS011;61763;51.416;5.442;2022-11-20T13:08:59;32.50;;;10.10;;
73515;SDS011;61763;51.416;5.442;2022-11-20T13:11:34;36.30;;;11.43;;
73515;SDS011;61763;51.416;5.442;2022-11-20T13:19:52;30.77;;;10.20;;
73515;SDS011;61763;51.416;5.442;2022-11-20T13:22:29;39.03;;;12.38;;
73515;SDS011;61763;51.416;5.442;2022-11-20T13:25:10;37.65;;;12.48;;
73515;SDS011;61763;51.416;5.442;2022-11-20T13:30:14;35.83;;;12.27;;
73515;SDS011;61763;51.416;5.442;2022-11-20T13:38:09;38.35;;;13.35;;
73515;SDS011;61763;51.416;5.442;2022-11-20T13:40:52;37.83;;;12.45;;
73515;SDS011;61763;51.416;5.442;2022-11-20T13:43:44;34.67;;;12.40;;
73515;SDS011;61763;51.416;5.442;2022-11-20T13:46:12;35.53;;;12.35;;
73515;SDS011;61763;51.416;5.442;2022-11-20T13:48:45;42.75;;;13.63;;
73515;SDS011;61763;51.416;5.442;2022-11-20T13:51:17;34.60;;;11.68;;
73515;SDS011;61763;51.416;5.442;2022-11-20T13:54:01;42.38;;;13.02;;
73515;SDS011;61763;51.416;5.442;2022-11-20T13:59:14;32.97;;;11.77;;
73515;SDS011;61763;51.416;5.442;2022-11-20T14:01:48;41.22;;;11.55;;
73515;SDS011;61763;51.416;5.442;2022-11-20T14:04:15;33.97;;;11.88;;
73515;SDS011;61763;51.416;5.442;2022-11-20T14:06:45;38.85;;;13.70;;
73515;SDS011;61763;51.416;5.442;2022-11-20T14:09:23;33.42;;;10.52;;
73515;SDS011;61763;51.416;5.442;2022-11-20T14:11:51;39.80;;;12.88;;
73515;SDS011;61763;51.416;5.442;2022-11-20T14:14:18;35.92;;;11.02;;
73515;SDS011;61763;51.416;5.442;2022-11-20T14:16:46;38.00;;;12.65;;
73515;SDS011;61763;51.416;5.442;2022-11-20T14:21:47;36.90;;;13.32;;
73515;SDS011;61763;51.416;5.442;2022-11-20T14:24:14;39.95;;;13.60;;
73515;SDS011;61763;51.416;5.442;2022-11-20T14:26:45;34.42;;;11.85;;
73515;SDS011;61763;51.416;5.442;2022-11-20T14:29:19;40.25;;;13.23;;
73515;SDS011;61763;51.416;5.442;2022-11-20T14:31:47;42.00;;;13.05;;
73515;SDS011;61763;51.416;5.442;2022-11-20T14:34:20;40.50;;;13.48;;
73515;SDS011;61763;51.416;5.442;2022-11-20T14:36:50;36.50;;;13.02;;
73515;SDS011;61763;51.416;5.442;2022-11-20T14:39:22;43.40;;;13.40;;
73515;SDS011;61763;51.416;5.442;2022-11-20T14:41:54;46.17;;;14.02;;
73515;SDS011;61763;51.416;5.442;2022-11-20T14:44:40;41.30;;;13.68;;
73515;SDS011;61763;51.416;5.442;2022-11-20T14:47:05;46.75;;;15.65;;
73515;SDS011;61763;51.416;5.442;2022-11-20T14:49:33;47.40;;;14.40;;
73515;SDS011;61763;51.416;5.442;2022-11-20T14:52:00;37.50;;;12.63;;
73515;SDS011;61763;51.416;5.442;2022-11-20T14:59:39;30.15;;;9.88;;
73515;SDS011;61763;51.416;5.442;2022-11-20T15:02:13;46.78;;;14.75;;
73515;SDS011;61763;51.416;5.442;2022-11-20T15:04:49;43.58;;;13.75;;
73515;SDS011;61763;51.416;5.442;2022-11-20T15:07:26;40.30;;;12.25;;
73515;SDS011;61763;51.416;5.442;2022-11-20T15:10:07;46.10;;;14.13;;
73515;SDS011;61763;51.416;5.442;2022-11-20T15:12:38;34.72;;;11.10;;
73515;SDS011;61763;51.416;5.442;2022-11-20T15:15:06;50.65;;;15.27;;
73515;SDS011;61763;51.416;5.442;2022-11-20T15:17:37;39.72;;;12.57;;
73515;SDS011;61763;51.416;5.442;2022-11-20T15:22:35;47.75;;;14.07;;
73515;SDS011;61763;51.416;5.442;2022-11-20T15:25:01;44.87;;;14.50;;
73515;SDS011;61763;51.416;5.442;2022-11-20T15:27:26;53.33;;;14.77;;
73515;SDS011;61763;51.416;5.442;2022-11-20T15:29:51;44.90;;;14.18;;
73515;SDS011;61763;51.416;5.442;2022-11-20T15:32:17;41.78;;;12.38;;
73515;SDS011;61763;51.416;5.442;2022-11-20T15:34:42;42.92;;;15.00;;
73515;SDS011;61763;51.416;5.442;2022-11-20T15:37:07;49.67;;;14.10;;
73515;SDS011;61763;51.416;5.442;2022-11-20T15:39:33;43.17;;;14.23;;
73515;SDS011;61763;51.416;5.442;2022-11-20T15:41:58;48.42;;;14.18;;
73515;SDS011;61763;51.416;5.442;2022-11-20T15:44:23;40.88;;;12.63;;
73515;SDS011;61763;51.416;5.442;2022-11-20T15:46:49;44.47;;;13.85;;
73515;SDS011;61763;51.416;5.442;2022-11-20T15:49:15;43.40;;;12.18;;
73515;SDS011;61763;51.416;5.442;2022-11-20T15:51:44;38.05;;;12.68;;
73515;SDS011;61763;51.416;5.442;2022-11-20T15:54:13;40.90;;;10.50;;
73515;SDS011;61763;51.416;5.442;2022-11-20T15:56:44;30.77;;;8.35;;
73515;SDS011;61763;51.416;5.442;2022-11-20T15:59:10;32.17;;;9.55;;
73515;SDS011;61763;51.416;5.442;2022-11-20T16:01:37;30.50;;;10.32;;
73515;SDS011;61763;51.416;5.442;2022-11-20T16:04:04;31.63;;;9.40;;
73515;SDS011;61763;51.416;5.442;2022-11-20T16:06:30;23.83;;;7.38;;
73515;SDS011;61763;51.416;5.442;2022-11-20T16:08:55;23.10;;;6.65;;
73515;SDS011;61763;51.416;5.442;2022-11-20T16:11:21;23.85;;;7.32;;
73515;SDS011;61763;51.416;5.442;2022-11-20T16:13:46;22.15;;;7.70;;
73515;SDS011;61763;51.416;5.442;2022-11-20T16:16:36;23.05;;;7.05;;
73515;SDS011;61763;51.416;5.442;2022-11-20T16:19:04;18.90;;;5.75;;
73515;SDS011;61763;51.416;5.442;2022-11-20T16:21:29;22.65;;;6.35;;
73515;SDS011;61763;51.416;5.442;2022-11-20T16:23:59;16.88;;;5.55;;
73515;SDS011;61763;51.416;5.442;2022-11-20T16:26:27;14.43;;;5.07;;
73515;SDS011;61763;51.416;5.442;2022-11-20T16:28:53;17.08;;;5.07;;
73515;SDS011;61763;51.416;5.442;2022-11-20T16:31:19;14.50;;;4.32;;
73515;SDS011;61763;51.416;5.442;2022-11-20T16:33:51;12.98;;;5.40;;
73515;SDS011;61763;51.416;5.442;2022-11-20T16:36:18;12.85;;;4.47;;
73515;SDS011;61763;51.416;5.442;2022-11-20T16:38:45;10.88;;;4.57;;
73515;SDS011;61763;51.416;5.442;2022-11-20T16:41:10;9.65;;;4.35;;
73515;SDS011;61763;51.416;5.442;2022-11-20T16:43:46;10.43;;;5.47;;
73515;SDS011;61763;51.416;5.442;2022-11-20T16:46:18;11.43;;;4.40;;
73515;SDS011;61763;51.416;5.442;2022-11-20T16:48:45;9.05;;;3.42;;
73515;SDS011;61763;51.416;5.442;2022-11-20T16:51:16;11.02;;;3.85;;
73515;SDS011;61763;51.416;5.442;2022-11-20T16:53:42;8.10;;;3.88;;
73515;SDS011;61763;51.416;5.442;2022-11-20T16:56:08;7.05;;;4.07;;
73515;SDS011;61763;51.416;5.442;2022-11-20T16:58:44;6.60;;;3.90;;